createdAt,value
2022-08-05T00:01:56.701Z,100165.03
2022-08-05T00:06:02.039Z,100168.19
2022-08-05T00:08:34.967Z,100164.28
2022-08-05T00:11:49.352Z,100162.28
2022-08-05T00:14:58.035Z,100160.75
2022-08-05T00:18:02.545Z,100163.16
2022-08-05T00:21:06.499Z,100164.75
2022-08-05T00:24:19.004Z,100163.19
2022-08-05T00:27:35.624Z,100161.69
2022-08-05T00:30:38.788Z,100166.84
2022-08-05T00:34:53.628Z,100162.16
2022-08-05T00:37:11.667Z,100162.94
2022-08-05T00:40:17.893Z,100162.56
2022-08-05T00:43:31.539Z,100162.97
2022-08-05T00:46:54.279Z,100154.72
2022-08-05T00:50:04.977Z,100151.25
2022-08-05T00:53:09.751Z,100161.09
2022-08-05T00:56:30.163Z,100157.94
2022-08-05T00:59:42.088Z,100153.63
2022-08-05T01:02:47.184Z,100146.19
2022-08-05T01:05:54.508Z,100150.91
2022-08-05T01:08:57.307Z,100150.16
2022-08-05T01:12:18.720Z,100146.63
2022-08-05T01:15:36.064Z,100153.31
2022-08-05T01:18:43.469Z,100150.56
2022-08-05T01:22:24.110Z,100152.53
2022-08-05T01:25:54.865Z,100148.22
2022-08-05T01:29:04.250Z,100155.34
2022-08-05T01:32:12.370Z,100150.62
2022-08-05T01:35:51.940Z,100147.88
2022-08-05T01:38:49.889Z,100150.66
2022-08-05T01:41:54.556Z,100155.75
2022-08-05T01:45:02.302Z,100156.16
2022-08-05T01:48:10.469Z,100155.00
2022-08-05T01:51:14.713Z,100153.47
2022-08-05T01:54:25.482Z,100159.72
2022-08-05T01:58:10.211Z,100151.88
2022-08-05T02:00:57.849Z,100154.63
2022-08-05T02:04:02.818Z,100160.53
2022-08-05T02:07:06.153Z,100160.53
2022-08-05T02:10:10.224Z,100158.19
2022-08-05T02:13:36.484Z,100159.78
2022-08-05T02:16:53.409Z,100149.53
2022-08-05T02:20:00.544Z,100158.19
2022-08-05T02:23:11.549Z,100154.25
2022-08-05T02:26:19.042Z,100153.47
2022-08-05T02:29:58.730Z,100148.72
2022-08-05T02:32:54.227Z,100153.47
2022-08-05T02:36:01.343Z,100151.91
2022-08-05T02:39:08.623Z,100153.06
2022-08-05T02:42:11.893Z,100143.25
2022-08-05T02:45:52.848Z,100139.69
2022-08-05T02:48:53.707Z,100141.66
2022-08-05T02:52:03.011Z,100141.66
2022-08-05T02:55:10.870Z,100144.81
2022-08-05T02:58:16.547Z,100140.88
2022-08-05T03:01:27.040Z,100134.19
2022-08-05T03:04:29.895Z,100133.78
2022-08-05T03:07:59.298Z,100137.31
2022-08-05T03:11:02.311Z,100136.94
2022-08-05T03:14:18.558Z,100135.75
2022-08-05T03:17:21.572Z,100133.00
2022-08-05T03:20:24.833Z,100133.78
2022-08-05T03:23:27.982Z,100127.44
2022-08-05T03:26:32.703Z,100136.47
2022-08-05T03:29:45.423Z,100127.44
2022-08-05T03:32:58.289Z,100118.78
2022-08-05T03:36:01.516Z,100122.66
2022-08-05T03:39:19.858Z,100123.84
2022-08-05T03:42:31.998Z,100134.06
2022-08-05T03:45:58.264Z,100127.38
2022-08-05T03:48:58.506Z,100125.00
2022-08-05T03:52:48.602Z,100128.50
2022-08-05T03:56:00.760Z,100121.81
2022-08-05T03:59:01.760Z,100134.41
2022-08-05T04:02:05.385Z,100130.44
2022-08-05T04:05:10.219Z,100131.22
2022-08-05T04:08:14.560Z,100135.16
2022-08-05T04:11:50.583Z,100132.37
2022-08-05T04:14:54.708Z,100146.53
2022-08-05T04:18:06.626Z,100138.25
2022-08-05T04:21:10.905Z,100131.22
2022-08-05T04:24:14.252Z,100130.84
2022-08-05T04:27:33.092Z,100133.22
2022-08-05T04:30:45.147Z,100128.13
2022-08-05T04:34:19.341Z,100132.84
2022-08-05T04:37:10.433Z,100129.72
2022-08-05T04:40:13.010Z,100130.50
2022-08-05T04:43:21.878Z,100137.59
2022-08-05T04:46:28.345Z,100136.03
2022-08-05T04:49:38.400Z,100139.56
2022-08-05T04:52:53.196Z,100135.25
2022-08-05T04:56:14.311Z,100131.34
2022-08-05T04:59:23.877Z,100136.84
2022-08-05T05:02:41.534Z,100135.69
2022-08-05T05:06:39.617Z,100135.28
2022-08-05T05:09:07.630Z,100136.06
2022-08-05T05:12:09.795Z,100128.22
2022-08-05T05:15:14.012Z,100130.97
2022-08-05T05:18:28.370Z,100123.53
2022-08-05T05:21:35.662Z,100127.88
2022-08-05T05:24:57.067Z,100126.72
2022-08-05T05:28:00.171Z,100132.63
2022-08-05T05:31:02.316Z,100128.66
2022-08-05T05:34:08.211Z,100136.16
2022-08-05T05:37:12.565Z,100123.97
2022-08-05T05:40:20.520Z,100125.13
2022-08-05T05:43:57.193Z,100129.06
2022-08-05T05:46:51.070Z,100123.53
2022-08-05T05:49:56.788Z,100118.81
2022-08-05T05:52:59.455Z,100131.03
2022-08-05T05:56:03.118Z,100121.56
2022-08-05T05:59:07.876Z,100116.03
2022-08-05T06:02:10.216Z,100113.25
2022-08-05T06:05:16.392Z,100115.66
2022-08-05T06:08:32.732Z,100118.75
2022-08-05T06:11:35.703Z,100116.38
2022-08-05T06:14:44.390Z,100121.09
2022-08-05T06:17:53.586Z,100128.16
2022-08-05T06:20:57.370Z,100126.56
2022-08-05T06:23:59.736Z,100128.09
2022-08-05T06:27:04.260Z,100127.69
2022-08-05T06:30:19.957Z,100126.44
2022-08-05T06:33:33.159Z,100117.72
2022-08-05T06:36:57.014Z,100120.06
2022-08-05T06:40:00.844Z,100120.06
2022-08-05T06:43:05.702Z,100123.16
2022-08-05T06:46:29.878Z,100124.31
2022-08-05T06:50:01.597Z,100125.41
2022-08-05T06:52:58.717Z,100125.37
2022-08-05T06:56:06.281Z,100124.87
2022-08-05T06:59:28.305Z,100127.56
2022-08-05T07:02:45.396Z,100118.44
2022-08-05T07:05:47.508Z,100118.00
2022-08-05T07:08:55.067Z,100122.25
2022-08-05T07:12:00.465Z,100128.84
2022-08-05T07:15:34.761Z,100119.66
2022-08-05T07:18:47.685Z,100127.81
2022-08-05T07:22:01.143Z,100125.28
2022-08-05T07:25:21.850Z,100125.13
2022-08-05T07:28:27.350Z,100119.72
2022-08-05T07:31:41.032Z,100122.69
2022-08-05T07:34:57.962Z,100119.03
2022-08-05T07:38:00.951Z,100117.53
2022-08-05T07:42:09.440Z,100113.72
2022-08-05T07:44:31.321Z,100114.53
2022-08-05T07:47:42.318Z,100109.25
2022-08-05T07:50:44.844Z,100111.13
2022-08-05T07:53:50.414Z,100108.34
2022-08-05T07:57:01.237Z,100106.16
2022-08-05T08:00:16.267Z,100110.88
2022-08-05T08:03:19.120Z,100109.13
2022-08-05T08:06:23.788Z,100106.16
2022-08-05T08:09:30.775Z,100115.63
2022-08-05T08:12:49.314Z,100116.94
2022-08-05T08:16:34.808Z,100111.94
2022-08-05T08:20:20.938Z,100107.59
2022-08-05T08:22:37.411Z,100107.38
2022-08-05T08:26:00.953Z,100097.47
2022-08-05T08:29:29.248Z,100095.31
2022-08-05T08:32:27.914Z,100102.25
2022-08-05T08:35:35.136Z,100092.91
2022-08-05T08:38:43.245Z,100095.63
2022-08-05T08:41:59.754Z,100097.00
2022-08-05T08:45:19.057Z,100089.13
2022-08-05T08:49:03.296Z,100088.88
2022-08-05T08:52:13.665Z,100093.16
2022-08-05T08:55:19.299Z,100097.47
2022-08-05T08:58:37.458Z,100098.22
2022-08-05T09:01:56.978Z,100096.50
2022-08-05T09:05:17.787Z,100087.84
2022-08-05T09:08:27.419Z,100092.59
2022-08-05T09:11:51.672Z,100088.56
2022-08-05T09:15:05.856Z,100087.44
2022-08-05T09:18:09.523Z,100071.94
2022-08-05T09:21:20.480Z,100073.06
2022-08-05T09:24:24.297Z,100068.69
2022-08-05T09:28:05.540Z,100066.91
2022-08-05T09:31:22.592Z,100060.66
2022-08-05T09:34:46.324Z,100066.22
2022-08-05T09:38:11.991Z,100055.47
2022-08-05T09:41:16.078Z,100051.03
2022-08-05T09:44:36.584Z,100052.16
2022-08-05T09:47:55.699Z,100042.44
2022-08-05T09:51:14.953Z,100042.62
2022-08-05T09:54:31.116Z,100037.47
2022-08-05T09:57:43.306Z,100039.69
2022-08-05T10:00:54.610Z,100034.94
2022-08-05T10:04:03.225Z,100035.84
2022-08-05T10:07:20.002Z,100030.97
2022-08-05T10:10:38.548Z,100025.66
2022-08-05T10:13:47.435Z,100014.72
2022-08-05T10:16:52.563Z,100022.97
2022-08-05T10:20:03.109Z,100011.38
2022-08-05T10:23:08.918Z,100007.66
2022-08-05T10:26:32.292Z,100003.28
2022-08-05T10:30:41.006Z,100015.28
2022-08-05T10:33:02.518Z,99999.00
2022-08-05T10:36:06.530Z,100003.19
2022-08-05T10:39:15.207Z,99995.81
2022-08-05T10:42:33.958Z,99989.88
2022-08-05T10:45:40.280Z,99988.31
2022-08-05T10:48:52.605Z,99991.28
2022-08-05T10:52:03.265Z,99984.69
2022-08-05T10:55:11.000Z,99977.66
2022-08-05T10:58:20.509Z,99980.72
2022-08-05T11:01:54.823Z,99981.25
2022-08-05T11:05:05.813Z,99973.19
2022-08-05T11:08:36.546Z,99974.28
2022-08-05T11:11:44.915Z,99967.81
2022-08-05T11:15:19.393Z,99962.91
2022-08-05T11:18:34.250Z,99962.69
2022-08-05T11:21:48.838Z,99964.41
2022-08-05T11:26:04.942Z,99966.72
2022-08-05T11:28:54.391Z,99974.78
2022-08-05T11:32:26.354Z,99968.84
2022-08-05T11:36:02.766Z,99955.81
2022-08-05T11:39:12.110Z,99952.28
2022-08-05T11:42:18.380Z,99951.47
2022-08-05T11:46:14.745Z,99957.28
2022-08-05T11:48:43.465Z,99955.94
2022-08-05T11:51:49.401Z,99951.53
2022-08-05T11:54:54.996Z,99951.19
2022-08-05T11:58:09.328Z,99947.16
2022-08-05T12:01:19.061Z,99946.66
2022-08-05T12:04:22.303Z,99942.63
2022-08-05T12:08:09.360Z,99950.09
2022-08-05T12:10:48.883Z,99949.34
2022-08-05T12:14:07.553Z,99949.88
2022-08-05T12:17:22.662Z,99951.16
2022-08-05T12:20:38.441Z,99948.78
2022-08-05T12:23:52.212Z,99942.53
2022-08-05T12:26:54.478Z,99930.84
2022-08-05T12:30:07.426Z,99939.56
2022-08-05T12:33:27.427Z,99932.94
2022-08-05T12:36:33.171Z,99924.94
2022-08-05T12:39:38.582Z,99927.06
2022-08-05T12:42:41.345Z,99926.97
2022-08-05T12:45:54.191Z,99921.75
2022-08-05T12:49:13.681Z,99922.38
2022-08-05T12:52:23.842Z,99924.00
2022-08-05T12:55:32.784Z,99912.72
2022-08-05T12:58:49.211Z,99911.91
2022-08-05T13:02:07.534Z,99916.19
2022-08-05T13:05:12.706Z,99916.25
2022-08-05T13:08:20.096Z,99901.16
2022-08-05T13:11:25.538Z,99896.75
2022-08-05T13:15:05.087Z,99891.47
2022-08-05T13:18:07.968Z,99877.56
2022-08-05T13:21:10.351Z,99899.75
2022-08-05T13:24:15.202Z,99879.22
2022-08-05T13:27:52.114Z,99877.44
2022-08-05T13:30:54.900Z,99871.81
2022-08-05T13:34:22.647Z,99879.06
2022-08-05T13:37:34.482Z,99866.69
2022-08-05T13:40:50.048Z,99864.37
2022-08-05T13:43:55.234Z,99849.25
2022-08-05T13:47:01.688Z,99847.69
2022-08-05T13:50:11.226Z,99844.44
2022-08-05T13:53:15.847Z,99852.84
2022-08-05T13:56:19.043Z,99842.91
2022-08-05T13:59:24.767Z,99841.44
2022-08-05T14:02:29.709Z,99833.97
2022-08-05T14:06:24.661Z,99834.19
2022-08-05T14:08:55.758Z,99834.13
2022-08-05T14:12:17.847Z,99830.28
2022-08-05T14:16:07.314Z,99831.06
2022-08-05T14:18:43.008Z,99824.88
2022-08-05T14:22:08.712Z,99820.78
2022-08-05T14:25:19.041Z,99818.66
2022-08-05T14:28:26.970Z,99815.59
2022-08-05T14:32:03.751Z,99808.69
2022-08-05T14:34:53.200Z,99806.88
2022-08-05T14:37:57.092Z,99802.03
2022-08-05T14:41:06.382Z,99806.53
2022-08-05T14:44:20.444Z,99812.63
2022-08-05T14:48:02.820Z,99811.06
2022-08-05T14:50:47.298Z,99802.47
2022-08-05T14:54:26.497Z,99802.87
2022-08-05T14:57:13.666Z,99792.16
2022-08-05T15:00:16.052Z,99786.75
2022-08-05T15:03:22.917Z,99789.28
2022-08-05T15:06:27.962Z,99787.41
2022-08-05T15:09:52.561Z,99786.34
2022-08-05T15:13:00.964Z,99790.84
2022-08-05T15:16:06.507Z,99792.84
2022-08-05T15:19:23.210Z,99789.94
2022-08-05T15:22:27.278Z,99788.09
2022-08-05T15:25:51.712Z,99781.94
2022-08-05T15:28:52.434Z,99783.94
2022-08-05T15:31:54.530Z,99781.94
2022-08-05T15:34:58.284Z,99772.44
2022-08-05T15:38:32.325Z,99768.09
2022-08-05T15:41:24.609Z,99773.69
2022-08-05T15:44:46.281Z,99765.94
2022-08-05T15:47:48.764Z,99761.59
2022-08-05T15:50:57.277Z,99758.50
2022-08-05T15:53:59.957Z,99759.19
2022-08-05T15:57:03.229Z,99753.00
2022-08-05T16:00:10.667Z,99749.91
2022-08-05T16:03:13.696Z,99758.75
2022-08-05T16:06:20.270Z,99754.69
2022-08-05T16:09:24.715Z,99755.78
2022-08-05T16:12:27.130Z,99758.31
2022-08-05T16:15:32.333Z,99762.09
2022-08-05T16:18:34.670Z,99765.41
2022-08-05T16:21:59.326Z,99760.97
2022-08-05T16:25:07.980Z,99758.03
2022-08-05T16:28:13.584Z,99769.69
2022-08-05T16:31:17.781Z,99759.13
2022-08-05T16:34:23.041Z,99762.16
2022-08-05T16:38:02.364Z,99760.78
2022-08-05T16:40:55.010Z,99763.22
2022-08-05T16:43:58.415Z,99751.91
2022-08-05T16:47:03.697Z,99756.38
2022-08-05T16:50:06.935Z,99749.41
2022-08-05T16:53:12.568Z,99754.38
2022-08-05T16:56:26.405Z,99752.75
2022-08-05T16:59:30.622Z,99754.88
2022-08-05T17:02:33.029Z,99752.94
2022-08-05T17:05:37.049Z,99757.87
2022-08-05T17:08:52.049Z,99752.16
2022-08-05T17:11:59.723Z,99754.84
2022-08-05T17:15:02.511Z,99760.03
2022-08-05T17:18:05.359Z,99758.84
2022-08-05T17:21:16.296Z,99753.62
2022-08-05T17:24:35.118Z,99762.84
2022-08-05T17:27:40.875Z,99760.91
2022-08-05T17:30:51.810Z,99761.62
2022-08-05T17:33:55.947Z,99768.97
2022-08-05T17:37:00.532Z,99765.78
2022-08-05T17:40:04.753Z,99767.25
2022-08-05T17:43:12.767Z,99770.41
2022-08-05T17:46:18.412Z,99758.69
2022-08-05T17:49:21.056Z,99762.13
2022-08-05T17:52:26.358Z,99762.75
2022-08-05T17:55:37.376Z,99770.69
2022-08-05T17:58:41.006Z,99768.41
2022-08-05T18:01:50.386Z,99774.00
2022-08-05T18:04:55.055Z,99769.12
2022-08-05T18:07:57.470Z,99771.16
2022-08-05T18:11:00.621Z,99771.91
2022-08-05T18:14:13.253Z,99771.13
2022-08-05T18:18:00.393Z,99767.06
2022-08-05T18:20:38.460Z,99767.50
2022-08-05T18:23:47.014Z,99760.78
2022-08-05T18:26:49.468Z,99769.44
2022-08-05T18:29:54.540Z,99770.19
2022-08-05T18:33:00.418Z,99769.84
2022-08-05T18:36:09.198Z,99775.38
2022-08-05T18:39:41.823Z,99786.16
2022-08-05T18:42:41.128Z,99791.22
2022-08-05T18:45:43.964Z,99786.03
2022-08-05T18:48:52.304Z,99783.97
2022-08-05T18:52:13.087Z,99794.28
2022-08-05T18:55:15.543Z,99792.31
2022-08-05T18:58:18.558Z,99795.84
2022-08-05T19:01:33.232Z,99797.41
2022-08-05T19:05:01.722Z,99796.88
2022-08-05T19:08:13.726Z,99794.34
2022-08-05T19:11:20.408Z,99790.91
2022-08-05T19:14:44.603Z,99792.38
2022-08-05T19:18:08.382Z,99806.88
2022-08-05T19:21:12.388Z,99801.66
2022-08-05T19:24:14.484Z,99803.34
2022-08-05T19:27:16.920Z,99802.66
2022-08-05T19:30:21.835Z,99800.47
2022-08-05T19:33:35.872Z,99804.56
2022-08-05T19:36:38.814Z,99808.34
2022-08-05T19:39:45.214Z,99801.78
2022-08-05T19:43:00.836Z,99811.91
2022-08-05T19:46:28.950Z,99802.66
2022-08-05T19:49:30.935Z,99806.44
2022-08-05T19:52:33.333Z,99801.03
2022-08-05T19:56:13.687Z,99797.56
2022-08-05T19:58:57.843Z,99799.78
2022-08-05T20:02:20.016Z,99803.97
2022-08-05T20:05:24.301Z,99804.97
2022-08-05T20:08:27.073Z,99801.72
2022-08-05T20:11:30.813Z,99805.69
2022-08-05T20:14:39.875Z,99800.34
2022-08-05T20:17:42.261Z,99809.75
2022-08-05T20:20:46.773Z,99822.28
2022-08-05T20:23:53.111Z,99818.81
2022-08-05T20:26:55.550Z,99820.13
2022-08-05T20:29:59.508Z,99821.97
2022-08-05T20:33:02.214Z,99837.06
2022-08-05T20:36:04.679Z,99836.94
2022-08-05T20:39:06.845Z,99839.97
2022-08-05T20:42:15.305Z,99841.72
2022-08-05T20:45:23.943Z,99841.28
2022-08-05T20:48:51.121Z,99838.56
2022-08-05T20:51:54.975Z,99845.31
2022-08-05T20:55:54.321Z,99838.56
2022-08-05T20:58:19.787Z,99851.81
2022-08-05T21:01:37.255Z,99846.72
2022-08-05T21:04:40.674Z,99849.22
2022-08-05T21:07:50.552Z,99841.75
2022-08-05T21:10:54.469Z,99845.22
2022-08-05T21:14:01.095Z,99851.47
2022-08-05T21:17:05.108Z,99850.41
2022-08-05T21:20:09.885Z,99848.41
2022-08-05T21:23:12.880Z,99842.22
2022-08-05T21:26:16.627Z,99855.56
2022-08-05T21:29:19.865Z,99859.66
2022-08-05T21:32:27.799Z,99853.12
2022-08-05T21:35:43.954Z,99863.59
2022-08-05T21:38:52.924Z,99860.19
2022-08-05T21:42:01.965Z,99861.47
2022-08-05T21:45:05.346Z,99865.44
2022-08-05T21:48:13.576Z,99854.06
2022-08-05T21:51:25.129Z,99863.78
2022-08-05T21:54:40.476Z,99868.69
2022-08-05T21:57:44.166Z,99872.78
2022-08-05T22:00:51.269Z,99862.84
2022-08-05T22:03:54.222Z,99867.41
2022-08-05T22:06:57.049Z,99871.87
2022-08-05T22:09:59.812Z,99873.22
2022-08-05T22:13:08.912Z,99878.50
2022-08-05T22:16:41.145Z,99878.25
2022-08-05T22:19:57.414Z,99874.28
2022-08-05T22:23:25.250Z,99863.16
2022-08-05T22:27:06.921Z,99874.31
2022-08-05T22:30:15.284Z,99865.00
2022-08-05T22:33:19.420Z,99870.66
2022-08-05T22:36:41.815Z,99864.44
2022-08-05T22:39:45.216Z,99868.00
2022-08-05T22:42:53.143Z,99864.56
2022-08-05T22:46:01.770Z,99859.41
2022-08-05T22:49:05.926Z,99861.84
2022-08-05T22:52:13.832Z,99862.75
2022-08-05T22:55:26.040Z,99862.50
2022-08-05T22:58:28.757Z,99859.75
2022-08-05T23:02:05.095Z,99863.47
2022-08-05T23:04:53.660Z,99863.47
2022-08-05T23:07:57.530Z,99863.50
2022-08-05T23:10:59.603Z,99855.31
2022-08-05T23:14:03.258Z,99855.28
2022-08-05T23:17:24.359Z,99854.50
2022-08-05T23:20:37.403Z,99860.50
2022-08-05T23:23:39.865Z,99868.47
2022-08-05T23:26:44.148Z,99859.22
2022-08-05T23:29:50.511Z,99860.00
2022-08-05T23:32:53.029Z,99860.09
2022-08-05T23:35:56.382Z,99863.69
2022-08-05T23:38:59.049Z,99857.78
2022-08-05T23:42:01.407Z,99858.63
2022-08-05T23:45:05.397Z,99850.38
2022-08-05T23:48:16.605Z,99850.84
2022-08-05T23:51:22.110Z,99852.44
2022-08-05T23:54:30.452Z,99847.78
2022-08-05T23:57:36.760Z,99843.09
